sensor_id;sensor_type;location;lat;lon;timestamp;P1;durP1;ratioP1;P2;durP2;ratioP2
59054;SDS011;44845;51.444;7.460;2024-03-06T00:02:08;15.77;;;11.27;;
59054;SDS011;44845;51.444;7.460;2024-03-06T00:04:33;14.82;;;10.82;;
59054;SDS011;44845;51.444;7.460;2024-03-06T00:06:59;19.38;;;11.25;;
59054;SDS011;44845;51.444;7.460;2024-03-06T00:09:25;15.77;;;10.55;;
59054;SDS011;44845;51.444;7.460;2024-03-06T00:11:53;19.85;;;11.35;;
59054;SDS011;44845;51.444;7.460;2024-03-06T00:14:19;15.18;;;10.32;;
59054;SDS011;44845;51.444;7.460;2024-03-06T00:16:48;14.73;;;10.10;;
59054;SDS011;44845;51.444;7.460;2024-03-06T00:19:17;14.15;;;10.15;;
59054;SDS011;44845;51.444;7.460;2024-03-06T00:21:42;15.25;;;10.90;;
59054;SDS011;44845;51.444;7.460;2024-03-06T00:24:08;15.07;;;10.38;;
59054;SDS011;44845;51.444;7.460;2024-03-06T00:26:33;14.82;;;9.95;;
59054;SDS011;44845;51.444;7.460;2024-03-06T00:28:59;18.42;;;10.05;;
59054;SDS011;44845;51.444;7.460;2024-03-06T00:31:24;15.68;;;9.93;;
59054;SDS011;44845;51.444;7.460;2024-03-06T00:33:49;12.90;;;9.52;;
59054;SDS011;44845;51.444;7.460;2024-03-06T00:36:15;11.80;;;8.65;;
59054;SDS011;44845;51.444;7.460;2024-03-06T00:38:40;16.08;;;9.40;;
59054;SDS011;44845;51.444;7.460;2024-03-06T00:41:05;13.35;;;9.52;;
59054;SDS011;44845;51.444;7.460;2024-03-06T00:43:31;14.27;;;9.25;;
59054;SDS011;44845;51.444;7.460;2024-03-06T00:45:56;14.35;;;9.43;;
59054;SDS011;44845;51.444;7.460;2024-03-06T00:48:22;13.68;;;9.52;;
59054;SDS011;44845;51.444;7.460;2024-03-06T00:50:47;13.55;;;9.73;;
59054;SDS011;44845;51.444;7.460;2024-03-06T00:53:12;16.48;;;10.70;;
59054;SDS011;44845;51.444;7.460;2024-03-06T00:55:38;15.82;;;10.55;;
59054;SDS011;44845;51.444;7.460;2024-03-06T00:58:03;17.83;;;11.35;;
59054;SDS011;44845;51.444;7.460;2024-03-06T01:00:29;18.30;;;12.02;;
59054;SDS011;44845;51.444;7.460;2024-03-06T01:02:55;19.52;;;11.55;;
59054;SDS011;44845;51.444;7.460;2024-03-06T01:05:20;18.15;;;12.07;;
59054;SDS011;44845;51.444;7.460;2024-03-06T01:07:45;15.48;;;11.20;;
59054;SDS011;44845;51.444;7.460;2024-03-06T01:10:11;15.75;;;10.45;;
59054;SDS011;44845;51.444;7.460;2024-03-06T01:12:36;15.45;;;10.00;;
59054;SDS011;44845;51.444;7.460;2024-03-06T01:15:02;14.07;;;10.07;;
59054;SDS011;44845;51.444;7.460;2024-03-06T01:17:29;14.45;;;10.65;;
59054;SDS011;44845;51.444;7.460;2024-03-06T01:19:54;16.92;;;11.80;;
59054;SDS011;44845;51.444;7.460;2024-03-06T01:22:20;19.58;;;13.10;;
59054;SDS011;44845;51.444;7.460;2024-03-06T01:24:45;18.33;;;12.75;;
59054;SDS011;44845;51.444;7.460;2024-03-06T01:27:13;21.45;;;13.40;;
59054;SDS011;44845;51.444;7.460;2024-03-06T01:29:41;19.65;;;12.95;;
59054;SDS011;44845;51.444;7.460;2024-03-06T01:32:06;19.23;;;13.07;;
59054;SDS011;44845;51.444;7.460;2024-03-06T01:34:31;22.02;;;13.98;;
59054;SDS011;44845;51.444;7.460;2024-03-06T01:36:57;22.63;;;14.35;;
59054;SDS011;44845;51.444;7.460;2024-03-06T01:39:22;23.77;;;15.18;;
59054;SDS011;44845;51.444;7.460;2024-03-06T01:41:48;24.70;;;15.45;;
59054;SDS011;44845;51.444;7.460;2024-03-06T01:44:14;25.98;;;16.20;;
59054;SDS011;44845;51.444;7.460;2024-03-06T01:46:40;25.10;;;15.35;;
59054;SDS011;44845;51.444;7.460;2024-03-06T01:49:06;25.65;;;15.52;;
59054;SDS011;44845;51.444;7.460;2024-03-06T01:51:32;25.95;;;15.55;;
59054;SDS011;44845;51.444;7.460;2024-03-06T01:53:58;26.05;;;15.90;;
59054;SDS011;44845;51.444;7.460;2024-03-06T01:56:26;24.70;;;15.27;;
59054;SDS011;44845;51.444;7.460;2024-03-06T01:58:52;24.83;;;15.60;;
59054;SDS011;44845;51.444;7.460;2024-03-06T02:01:19;26.88;;;15.65;;
59054;SDS011;44845;51.444;7.460;2024-03-06T02:03:46;26.60;;;15.82;;
59054;SDS011;44845;51.444;7.460;2024-03-06T02:06:12;24.67;;;15.75;;
59054;SDS011;44845;51.444;7.460;2024-03-06T02:08:39;25.52;;;15.23;;
59054;SDS011;44845;51.444;7.460;2024-03-06T02:11:05;24.55;;;14.55;;
59054;SDS011;44845;51.444;7.460;2024-03-06T02:13:32;26.73;;;16.00;;
59054;SDS011;44845;51.444;7.460;2024-03-06T02:15:58;23.75;;;15.15;;
59054;SDS011;44845;51.444;7.460;2024-03-06T02:18:23;23.35;;;15.65;;
59054;SDS011;44845;51.444;7.460;2024-03-06T02:20:49;23.80;;;15.23;;
59054;SDS011;44845;51.444;7.460;2024-03-06T02:23:15;25.00;;;15.45;;
59054;SDS011;44845;51.444;7.460;2024-03-06T02:25:42;26.23;;;15.95;;
59054;SDS011;44845;51.444;7.460;2024-03-06T02:28:08;21.83;;;14.90;;
59054;SDS011;44845;51.444;7.460;2024-03-06T02:30:33;25.52;;;16.17;;
59054;SDS011;44845;51.444;7.460;2024-03-06T02:33:01;22.33;;;14.25;;
59054;SDS011;44845;51.444;7.460;2024-03-06T02:35:29;22.65;;;15.40;;
59054;SDS011;44845;51.444;7.460;2024-03-06T02:37:54;24.42;;;15.02;;
59054;SDS011;44845;51.444;7.460;2024-03-06T02:40:21;21.85;;;14.35;;
59054;SDS011;44845;51.444;7.460;2024-03-06T02:42:47;24.77;;;15.43;;
59054;SDS011;44845;51.444;7.460;2024-03-06T02:45:13;23.67;;;15.13;;
59054;SDS011;44845;51.444;7.460;2024-03-06T02:47:38;23.90;;;14.90;;
59054;SDS011;44845;51.444;7.460;2024-03-06T02:50:04;24.35;;;15.02;;
59054;SDS011;44845;51.444;7.460;2024-03-06T02:52:30;22.63;;;14.57;;
59054;SDS011;44845;51.444;7.460;2024-03-06T02:54:55;25.23;;;15.55;;
59054;SDS011;44845;51.444;7.460;2024-03-06T02:57:21;23.85;;;15.75;;
59054;SDS011;44845;51.444;7.460;2024-03-06T02:59:46;25.27;;;15.95;;
59054;SDS011;44845;51.444;7.460;2024-03-06T03:02:12;23.00;;;15.27;;
59054;SDS011;44845;51.444;7.460;2024-03-06T03:04:38;22.33;;;14.82;;
59054;SDS011;44845;51.444;7.460;2024-03-06T03:07:03;24.40;;;15.07;;
59054;SDS011;44845;51.444;7.460;2024-03-06T03:09:30;25.42;;;15.27;;
59054;SDS011;44845;51.444;7.460;2024-03-06T03:11:55;24.58;;;14.88;;
59054;SDS011;44845;51.444;7.460;2024-03-06T03:14:21;23.75;;;14.73;;
59054;SDS011;44845;51.444;7.460;2024-03-06T03:16:47;25.55;;;15.82;;
59054;SDS011;44845;51.444;7.460;2024-03-06T03:19:12;26.20;;;15.95;;
59054;SDS011;44845;51.444;7.460;2024-03-06T03:21:37;27.10;;;14.60;;
59054;SDS011;44845;51.444;7.460;2024-03-06T03:24:04;24.35;;;15.15;;
59054;SDS011;44845;51.444;7.460;2024-03-06T03:26:29;24.67;;;15.40;;
59054;SDS011;44845;51.444;7.460;2024-03-06T03:28:55;26.60;;;16.20;;
59054;SDS011;44845;51.444;7.460;2024-03-06T03:31:20;24.20;;;15.85;;
59054;SDS011;44845;51.444;7.460;2024-03-06T03:33:46;29.33;;;16.38;;
59054;SDS011;44845;51.444;7.460;2024-03-06T03:36:11;25.73;;;15.75;;
59054;SDS011;44845;51.444;7.460;2024-03-06T03:38:37;27.60;;;15.65;;
59054;SDS011;44845;51.444;7.460;2024-03-06T03:41:09;32.83;;;16.73;;
59054;SDS011;44845;51.444;7.460;2024-03-06T03:43:35;26.48;;;16.83;;
59054;SDS011;44845;51.444;7.460;2024-03-06T03:46:01;29.83;;;16.55;;
59054;SDS011;44845;51.444;7.460;2024-03-06T03:48:26;23.23;;;15.15;;
59054;SDS011;44845;51.444;7.460;2024-03-06T03:50:51;22.13;;;13.55;;
59054;SDS011;44845;51.444;7.460;2024-03-06T03:53:17;25.58;;;15.82;;
59054;SDS011;44845;51.444;7.460;2024-03-06T03:55:42;23.27;;;14.40;;
59054;SDS011;44845;51.444;7.460;2024-03-06T03:58:07;24.85;;;14.13;;
59054;SDS011;44845;51.444;7.460;2024-03-06T04:00:33;28.70;;;14.60;;
59054;SDS011;44845;51.444;7.460;2024-03-06T04:02:59;23.95;;;14.93;;
59054;SDS011;44845;51.444;7.460;2024-03-06T04:05:24;23.23;;;14.75;;
59054;SDS011;44845;51.444;7.460;2024-03-06T04:07:50;25.33;;;14.73;;
59054;SDS011;44845;51.444;7.460;2024-03-06T04:10:16;24.08;;;14.73;;
59054;SDS011;44845;51.444;7.460;2024-03-06T04:12:41;24.13;;;14.60;;
59054;SDS011;44845;51.444;7.460;2024-03-06T04:15:07;25.17;;;14.73;;
59054;SDS011;44845;51.444;7.460;2024-03-06T04:17:33;24.92;;;15.55;;
59054;SDS011;44845;51.444;7.460;2024-03-06T04:19:59;24.38;;;15.13;;
59054;SDS011;44845;51.444;7.460;2024-03-06T04:22:25;29.55;;;16.48;;
59054;SDS011;44845;51.444;7.460;2024-03-06T04:24:51;27.88;;;15.65;;
59054;SDS011;44845;51.444;7.460;2024-03-06T04:27:16;23.10;;;14.57;;
59054;SDS011;44845;51.444;7.460;2024-03-06T04:29:41;23.60;;;14.55;;
59054;SDS011;44845;51.444;7.460;2024-03-06T04:32:07;23.52;;;14.18;;
59054;SDS011;44845;51.444;7.460;2024-03-06T04:34:32;23.88;;;14.13;;
59054;SDS011;44845;51.444;7.460;2024-03-06T04:36:57;23.17;;;13.75;;
59054;SDS011;44845;51.444;7.460;2024-03-06T04:39:23;21.08;;;13.88;;
59054;SDS011;44845;51.444;7.460;2024-03-06T04:41:48;26.33;;;14.93;;
59054;SDS011;44845;51.444;7.460;2024-03-06T04:44:14;28.30;;;16.05;;
59054;SDS011;44845;51.444;7.460;2024-03-06T04:46:39;30.80;;;15.98;;
59054;SDS011;44845;51.444;7.460;2024-03-06T04:49:04;26.42;;;15.95;;
59054;SDS011;44845;51.444;7.460;2024-03-06T04:51:30;28.55;;;17.55;;
59054;SDS011;44845;51.444;7.460;2024-03-06T04:53:55;29.63;;;16.85;;
59054;SDS011;44845;51.444;7.460;2024-03-06T04:56:20;30.10;;;17.33;;
59054;SDS011;44845;51.444;7.460;2024-03-06T04:58:47;29.30;;;17.80;;
59054;SDS011;44845;51.444;7.460;2024-03-06T05:01:12;28.65;;;17.27;;
59054;SDS011;44845;51.444;7.460;2024-03-06T05:03:38;30.45;;;17.17;;
59054;SDS011;44845;51.444;7.460;2024-03-06T05:06:06;28.83;;;17.92;;
59054;SDS011;44845;51.444;7.460;2024-03-06T05:08:32;29.83;;;17.85;;
59054;SDS011;44845;51.444;7.460;2024-03-06T05:10:59;27.83;;;16.83;;
59054;SDS011;44845;51.444;7.460;2024-03-06T05:13:25;26.83;;;15.73;;
59054;SDS011;44845;51.444;7.460;2024-03-06T05:15:51;26.80;;;16.55;;
59054;SDS011;44845;51.444;7.460;2024-03-06T05:18:17;25.58;;;15.50;;
59054;SDS011;44845;51.444;7.460;2024-03-06T05:20:42;30.90;;;15.82;;
59054;SDS011;44845;51.444;7.460;2024-03-06T05:23:08;25.13;;;15.43;;
59054;SDS011;44845;51.444;7.460;2024-03-06T05:25:33;25.52;;;15.57;;
59054;SDS011;44845;51.444;7.460;2024-03-06T05:27:59;27.83;;;15.73;;
59054;SDS011;44845;51.444;7.460;2024-03-06T05:30:24;25.38;;;15.52;;
59054;SDS011;44845;51.444;7.460;2024-03-06T05:32:49;30.60;;;15.60;;
59054;SDS011;44845;51.444;7.460;2024-03-06T05:35:15;24.42;;;15.10;;
59054;SDS011;44845;51.444;7.460;2024-03-06T05:37:41;28.45;;;15.32;;
59054;SDS011;44845;51.444;7.460;2024-03-06T05:40:07;23.58;;;14.90;;
59054;SDS011;44845;51.444;7.460;2024-03-06T05:42:34;28.85;;;16.52;;
59054;SDS011;44845;51.444;7.460;2024-03-06T05:44:59;27.55;;;16.33;;
59054;SDS011;44845;51.444;7.460;2024-03-06T05:47:29;27.23;;;16.67;;
59054;SDS011;44845;51.444;7.460;2024-03-06T05:49:57;24.40;;;15.38;;
59054;SDS011;44845;51.444;7.460;2024-03-06T05:52:23;27.00;;;15.05;;
59054;SDS011;44845;51.444;7.460;2024-03-06T05:54:49;29.08;;;16.08;;
59054;SDS011;44845;51.444;7.460;2024-03-06T05:57:15;22.00;;;14.15;;
59054;SDS011;44845;51.444;7.460;2024-03-06T05:59:41;25.35;;;15.20;;
59054;SDS011;44845;51.444;7.460;2024-03-06T06:02:07;27.67;;;15.10;;
59054;SDS011;44845;51.444;7.460;2024-03-06T06:04:32;26.02;;;15.85;;
59054;SDS011;44845;51.444;7.460;2024-03-06T06:06:58;26.58;;;16.15;;
59054;SDS011;44845;51.444;7.460;2024-03-06T06:09:23;28.83;;;15.18;;
59054;SDS011;44845;51.444;7.460;2024-03-06T06:11:48;22.20;;;13.88;;
59054;SDS011;44845;51.444;7.460;2024-03-06T06:14:15;26.20;;;14.63;;
59054;SDS011;44845;51.444;7.460;2024-03-06T06:16:41;22.58;;;14.02;;
59054;SDS011;44845;51.444;7.460;2024-03-06T06:19:07;23.17;;;13.82;;
59054;SDS011;44845;51.444;7.460;2024-03-06T06:21:33;23.20;;;14.25;;
59054;SDS011;44845;51.444;7.460;2024-03-06T06:24:01;21.98;;;13.38;;
59054;SDS011;44845;51.444;7.460;2024-03-06T06:26:30;23.23;;;13.77;;
59054;SDS011;44845;51.444;7.460;2024-03-06T06:28:56;22.70;;;13.77;;
59054;SDS011;44845;51.444;7.460;2024-03-06T06:31:22;24.20;;;13.35;;
59054;SDS011;44845;51.444;7.460;2024-03-06T06:33:47;23.27;;;14.80;;
59054;SDS011;44845;51.444;7.460;2024-03-06T06:36:12;21.65;;;13.80;;
59054;SDS011;44845;51.444;7.460;2024-03-06T06:38:38;20.35;;;13.32;;
59054;SDS011;44845;51.444;7.460;2024-03-06T06:41:03;21.23;;;13.40;;
59054;SDS011;44845;51.444;7.460;2024-03-06T06:43:29;25.75;;;14.35;;
59054;SDS011;44845;51.444;7.460;2024-03-06T06:45:55;25.15;;;13.90;;
59054;SDS011;44845;51.444;7.460;2024-03-06T06:48:20;25.58;;;14.63;;
59054;SDS011;44845;51.444;7.460;2024-03-06T06:50:45;22.83;;;14.10;;
59054;SDS011;44845;51.444;7.460;2024-03-06T06:53:12;26.40;;;15.43;;
59054;SDS011;44845;51.444;7.460;2024-03-06T06:55:38;23.90;;;14.20;;
59054;SDS011;44845;51.444;7.460;2024-03-06T06:58:03;22.65;;;14.35;;
59054;SDS011;44845;51.444;7.460;2024-03-06T07:00:29;22.52;;;13.35;;
59054;SDS011;44845;51.444;7.460;2024-03-06T07:02:55;23.35;;;12.98;;
59054;SDS011;44845;51.444;7.460;2024-03-06T07:05:23;19.23;;;12.90;;
59054;SDS011;44845;51.444;7.460;2024-03-06T07:07:48;21.10;;;13.15;;
59054;SDS011;44845;51.444;7.460;2024-03-06T07:10:14;20.55;;;12.18;;
59054;SDS011;44845;51.444;7.460;2024-03-06T07:12:39;19.17;;;12.55;;
59054;SDS011;44845;51.444;7.460;2024-03-06T07:15:05;19.02;;;11.52;;
59054;SDS011;44845;51.444;7.460;2024-03-06T07:17:31;19.55;;;11.93;;
59054;SDS011;44845;51.444;7.460;2024-03-06T07:19:57;18.55;;;11.40;;
59054;SDS011;44845;51.444;7.460;2024-03-06T07:22:22;20.05;;;12.48;;
59054;SDS011;44845;51.444;7.460;2024-03-06T07:24:48;18.33;;;11.55;;
59054;SDS011;44845;51.444;7.460;2024-03-06T07:27:13;19.58;;;11.57;;
59054;SDS011;44845;51.444;7.460;2024-03-06T07:29:39;18.40;;;11.40;;
59054;SDS011;44845;51.444;7.460;2024-03-06T07:32:05;16.75;;;11.77;;
59054;SDS011;44845;51.444;7.460;2024-03-06T07:34:30;20.23;;;11.70;;
59054;SDS011;44845;51.444;7.460;2024-03-06T07:36:56;17.30;;;10.85;;
59054;SDS011;44845;51.444;7.460;2024-03-06T07:39:21;17.73;;;11.18;;
59054;SDS011;44845;51.444;7.460;2024-03-06T07:41:47;18.48;;;11.20;;
59054;SDS011;44845;51.444;7.460;2024-03-06T07:44:12;14.88;;;10.45;;
59054;SDS011;44845;51.444;7.460;2024-03-06T07:46:38;17.17;;;11.18;;
59054;SDS011;44845;51.444;7.460;2024-03-06T07:49:03;14.60;;;10.38;;
59054;SDS011;44845;51.444;7.460;2024-03-06T07:51:29;19.23;;;11.48;;
59054;SDS011;44845;51.444;7.460;2024-03-06T07:53:56;15.63;;;11.02;;
59054;SDS011;44845;51.444;7.460;2024-03-06T07:56:22;16.85;;;10.82;;
59054;SDS011;44845;51.444;7.460;2024-03-06T07:58:48;17.25;;;11.75;;
59054;SDS011;44845;51.444;7.460;2024-03-06T08:01:14;18.13;;;11.18;;
59054;SDS011;44845;51.444;7.460;2024-03-06T08:03:40;18.30;;;12.43;;
59054;SDS011;44845;51.444;7.460;2024-03-06T08:06:05;21.10;;;13.05;;
59054;SDS011;44845;51.444;7.460;2024-03-06T08:08:31;17.20;;;11.30;;
59054;SDS011;44845;51.444;7.460;2024-03-06T08:10:56;18.90;;;11.90;;
59054;SDS011;44845;51.444;7.460;2024-03-06T08:13:22;20.65;;;11.55;;
59054;SDS011;44845;51.444;7.460;2024-03-06T08:15:47;19.05;;;12.63;;
59054;SDS011;44845;51.444;7.460;2024-03-06T08:18:13;20.75;;;13.95;;
59054;SDS011;44845;51.444;7.460;2024-03-06T08:20:40;22.67;;;14.32;;
59054;SDS011;44845;51.444;7.460;2024-03-06T08:23:06;21.70;;;14.05;;
59054;SDS011;44845;51.444;7.460;2024-03-06T08:25:33;24.10;;;14.90;;
59054;SDS011;44845;51.444;7.460;2024-03-06T08:27:58;24.30;;;14.30;;
59054;SDS011;44845;51.444;7.460;2024-03-06T08:30:24;23.50;;;14.50;;
59054;SDS011;44845;51.444;7.460;2024-03-06T08:32:49;27.00;;;14.48;;
59054;SDS011;44845;51.444;7.460;2024-03-06T08:35:16;25.15;;;14.93;;
59054;SDS011;44845;51.444;7.460;2024-03-06T08:37:43;26.70;;;15.88;;
59054;SDS011;44845;51.444;7.460;2024-03-06T08:40:09;25.17;;;15.38;;
59054;SDS011;44845;51.444;7.460;2024-03-06T08:42:42;24.60;;;15.25;;
59054;SDS011;44845;51.444;7.460;2024-03-06T08:45:13;25.85;;;16.55;;
59054;SDS011;44845;51.444;7.460;2024-03-06T08:47:42;29.48;;;16.45;;
59054;SDS011;44845;51.444;7.460;2024-03-06T08:50:08;27.00;;;16.55;;
59054;SDS011;44845;51.444;7.460;2024-03-06T08:52:34;27.17;;;16.48;;
59054;SDS011;44845;51.444;7.460;2024-03-06T08:55:00;29.75;;;17.33;;
59054;SDS011;44845;51.444;7.460;2024-03-06T08:57:25;31.63;;;18.15;;
59054;SDS011;44845;51.444;7.460;2024-03-06T08:59:53;32.25;;;18.58;;
59054;SDS011;44845;51.444;7.460;2024-03-06T09:02:19;31.13;;;18.15;;
59054;SDS011;44845;51.444;7.460;2024-03-06T09:04:45;32.55;;;18.27;;
59054;SDS011;44845;51.444;7.460;2024-03-06T09:07:11;34.45;;;19.13;;
59054;SDS011;44845;51.444;7.460;2024-03-06T09:09:38;35.97;;;19.75;;
59054;SDS011;44845;51.444;7.460;2024-03-06T09:12:04;36.50;;;18.73;;
59054;SDS011;44845;51.444;7.460;2024-03-06T09:14:35;33.40;;;18.85;;
59054;SDS011;44845;51.444;7.460;2024-03-06T09:17:04;30.33;;;18.38;;
59054;SDS011;44845;51.444;7.460;2024-03-06T09:19:30;33.25;;;18.90;;
59054;SDS011;44845;51.444;7.460;2024-03-06T09:21:56;34.22;;;18.67;;
59054;SDS011;44845;51.444;7.460;2024-03-06T09:24:22;32.05;;;17.58;;
59054;SDS011;44845;51.444;7.460;2024-03-06T09:26:49;32.13;;;17.33;;
59054;SDS011;44845;51.444;7.460;2024-03-06T09:29:14;33.25;;;18.73;;
59054;SDS011;44845;51.444;7.460;2024-03-06T09:31:41;33.38;;;18.00;;
59054;SDS011;44845;51.444;7.460;2024-03-06T09:34:07;29.25;;;18.33;;
59054;SDS011;44845;51.444;7.460;2024-03-06T09:36:32;32.28;;;17.88;;
59054;SDS011;44845;51.444;7.460;2024-03-06T09:38:58;29.77;;;18.45;;
59054;SDS011;44845;51.444;7.460;2024-03-06T09:41:29;29.50;;;17.80;;
59054;SDS011;44845;51.444;7.460;2024-03-06T09:43:55;31.13;;;17.15;;
59054;SDS011;44845;51.444;7.460;2024-03-06T09:46:20;31.08;;;16.67;;
59054;SDS011;44845;51.444;7.460;2024-03-06T09:48:47;27.70;;;16.40;;
59054;SDS011;44845;51.444;7.460;2024-03-06T09:51:13;29.20;;;16.95;;
59054;SDS011;44845;51.444;7.460;2024-03-06T09:53:39;33.70;;;17.13;;
59054;SDS011;44845;51.444;7.460;2024-03-06T09:56:06;28.25;;;17.40;;
59054;SDS011;44845;51.444;7.460;2024-03-06T09:58:33;24.08;;;15.30;;
59054;SDS011;44845;51.444;7.460;2024-03-06T10:00:59;27.48;;;16.92;;
59054;SDS011;44845;51.444;7.460;2024-03-06T10:03:26;28.65;;;15.88;;
59054;SDS011;44845;51.444;7.460;2024-03-06T10:05:52;28.25;;;16.42;;
59054;SDS011;44845;51.444;7.460;2024-03-06T10:08:19;25.77;;;15.55;;
59054;SDS011;44845;51.444;7.460;2024-03-06T10:10:44;28.33;;;16.40;;
59054;SDS011;44845;51.444;7.460;2024-03-06T10:13:15;26.00;;;15.70;;
59054;SDS011;44845;51.444;7.460;2024-03-06T10:15:42;25.02;;;16.17;;
59054;SDS011;44845;51.444;7.460;2024-03-06T10:18:14;26.50;;;15.57;;
59054;SDS011;44845;51.444;7.460;2024-03-06T10:20:43;26.55;;;15.18;;
59054;SDS011;44845;51.444;7.460;2024-03-06T10:23:08;20.15;;;12.68;;
59054;SDS011;44845;51.444;7.460;2024-03-06T10:25:34;19.42;;;12.15;;
59054;SDS011;44845;51.444;7.460;2024-03-06T10:28:09;16.02;;;10.55;;
59054;SDS011;44845;51.444;7.460;2024-03-06T10:30:36;15.32;;;9.73;;
59054;SDS011;44845;51.444;7.460;2024-03-06T10:33:06;12.85;;;8.63;;
59054;SDS011;44845;51.444;7.460;2024-03-06T10:35:32;16.90;;;9.07;;
59054;SDS011;44845;51.444;7.460;2024-03-06T10:38:01;18.17;;;10.60;;
59054;SDS011;44845;51.444;7.460;2024-03-06T10:40:29;16.30;;;10.32;;
59054;SDS011;44845;51.444;7.460;2024-03-06T10:42:57;18.10;;;10.77;;
59054;SDS011;44845;51.444;7.460;2024-03-06T10:45:25;17.02;;;10.32;;
59054;SDS011;44845;51.444;7.460;2024-03-06T10:48:01;16.23;;;10.10;;
59054;SDS011;44845;51.444;7.460;2024-03-06T10:50:27;17.27;;;10.02;;
59054;SDS011;44845;51.444;7.460;2024-03-06T10:52:55;18.38;;;10.15;;
59054;SDS011;44845;51.444;7.460;2024-03-06T10:55:22;16.35;;;10.23;;
59054;SDS011;44845;51.444;7.460;2024-03-06T10:57:49;23.30;;;10.32;;
59054;SDS011;44845;51.444;7.460;2024-03-06T11:00:17;18.13;;;11.43;;
59054;SDS011;44845;51.444;7.460;2024-03-06T11:02:45;19.27;;;11.02;;
59054;SDS011;44845;51.444;7.460;2024-03-06T11:05:13;18.55;;;11.30;;
59054;SDS011;44845;51.444;7.460;2024-03-06T11:07:39;17.77;;;11.70;;
59054;SDS011;44845;51.444;7.460;2024-03-06T11:10:04;19.08;;;12.05;;
59054;SDS011;44845;51.444;7.460;2024-03-06T11:12:34;19.85;;;12.77;;
59054;SDS011;44845;51.444;7.460;2024-03-06T11:15:07;19.48;;;12.20;;
59054;SDS011;44845;51.444;7.460;2024-03-06T11:17:34;20.42;;;13.73;;
59054;SDS011;44845;51.444;7.460;2024-03-06T11:28:19;27.70;;;16.38;;
59054;SDS011;44845;51.444;7.460;2024-03-06T11:33:22;26.77;;;16.00;;
59054;SDS011;44845;51.444;7.460;2024-03-06T11:38:57;26.80;;;15.65;;
59054;SDS011;44845;51.444;7.460;2024-03-06T11:41:46;28.75;;;17.20;;
59054;SDS011;44845;51.444;7.460;2024-03-06T11:44:19;29.42;;;16.90;;
59054;SDS011;44845;51.444;7.460;2024-03-06T11:46:47;24.75;;;15.50;;
59054;SDS011;44845;51.444;7.460;2024-03-06T11:51:53;28.08;;;17.38;;
59054;SDS011;44845;51.444;7.460;2024-03-06T11:54:23;28.15;;;18.48;;
59054;SDS011;44845;51.444;7.460;2024-03-06T11:56:51;26.95;;;17.20;;
59054;SDS011;44845;51.444;7.460;2024-03-06T11:59:20;27.08;;;17.48;;
59054;SDS011;44845;51.444;7.460;2024-03-06T12:01:47;24.25;;;15.02;;
59054;SDS011;44845;51.444;7.460;2024-03-06T12:04:13;25.30;;;15.13;;
59054;SDS011;44845;51.444;7.460;2024-03-06T12:06:38;25.10;;;16.17;;
59054;SDS011;44845;51.444;7.460;2024-03-06T12:09:04;22.75;;;15.07;;
59054;SDS011;44845;51.444;7.460;2024-03-06T12:11:29;25.98;;;14.93;;
59054;SDS011;44845;51.444;7.460;2024-03-06T12:13:56;25.00;;;15.63;;
59054;SDS011;44845;51.444;7.460;2024-03-06T12:16:22;21.38;;;14.50;;
59054;SDS011;44845;51.444;7.460;2024-03-06T12:18:54;27.77;;;15.77;;
59054;SDS011;44845;51.444;7.460;2024-03-06T12:21:27;23.98;;;14.43;;
59054;SDS011;44845;51.444;7.460;2024-03-06T12:24:03;23.45;;;14.27;;
59054;SDS011;44845;51.444;7.460;2024-03-06T12:26:29;21.65;;;14.00;;
59054;SDS011;44845;51.444;7.460;2024-03-06T12:29:03;23.38;;;14.32;;
59054;SDS011;44845;51.444;7.460;2024-03-06T12:33:59;19.17;;;13.10;;
59054;SDS011;44845;51.444;7.460;2024-03-06T12:36:27;24.67;;;15.15;;
59054;SDS011;44845;51.444;7.460;2024-03-06T12:38:54;22.73;;;14.73;;
59054;SDS011;44845;51.444;7.460;2024-03-06T12:41:20;21.58;;;14.65;;
59054;SDS011;44845;51.444;7.460;2024-03-06T12:43:46;24.92;;;15.52;;
59054;SDS011;44845;51.444;7.460;2024-03-06T12:46:11;32.13;;;16.15;;
59054;SDS011;44845;51.444;7.460;2024-03-06T12:48:37;22.90;;;16.13;;
59054;SDS011;44845;51.444;7.460;2024-03-06T12:51:05;24.85;;;15.55;;
59054;SDS011;44845;51.444;7.460;2024-03-06T12:53:30;23.35;;;15.68;;
59054;SDS011;44845;51.444;7.460;2024-03-06T12:55:56;28.70;;;14.88;;
59054;SDS011;44845;51.444;7.460;2024-03-06T12:58:22;19.33;;;14.82;;
59054;SDS011;44845;51.444;7.460;2024-03-06T13:00:47;20.63;;;14.50;;
59054;SDS011;44845;51.444;7.460;2024-03-06T13:03:12;21.55;;;15.23;;
59054;SDS011;44845;51.444;7.460;2024-03-06T13:05:38;18.98;;;13.23;;
59054;SDS011;44845;51.444;7.460;2024-03-06T13:08:03;19.98;;;14.55;;
59054;SDS011;44845;51.444;7.460;2024-03-06T13:10:29;19.35;;;13.13;;
59054;SDS011;44845;51.444;7.460;2024-03-06T13:12:54;19.63;;;13.00;;
59054;SDS011;44845;51.444;7.460;2024-03-06T13:15:20;16.45;;;12.63;;
59054;SDS011;44845;51.444;7.460;2024-03-06T13:17:45;16.67;;;11.30;;
59054;SDS011;44845;51.444;7.460;2024-03-06T13:20:10;18.55;;;12.35;;
59054;SDS011;44845;51.444;7.460;2024-03-06T13:22:39;14.60;;;11.23;;
59054;SDS011;44845;51.444;7.460;2024-03-06T13:25:05;15.70;;;12.20;;
59054;SDS011;44845;51.444;7.460;2024-03-06T13:27:31;17.77;;;13.25;;
59054;SDS011;44845;51.444;7.460;2024-03-06T13:29:57;19.48;;;13.90;;
59054;SDS011;44845;51.444;7.460;2024-03-06T13:32:23;18.60;;;14.43;;
59054;SDS011;44845;51.444;7.460;2024-03-06T13:34:48;21.35;;;15.02;;
59054;SDS011;44845;51.444;7.460;2024-03-06T13:37:14;27.52;;;17.05;;
59054;SDS011;44845;51.444;7.460;2024-03-06T13:39:39;23.63;;;17.27;;
59054;SDS011;44845;51.444;7.460;2024-03-06T13:42:05;24.92;;;16.80;;
59054;SDS011;44845;51.444;7.460;2024-03-06T13:44:31;24.17;;;16.23;;
59054;SDS011;44845;51.444;7.460;2024-03-06T13:46:57;20.95;;;15.80;;
59054;SDS011;44845;51.444;7.460;2024-03-06T13:49:34;24.00;;;16.95;;
59054;SDS011;44845;51.444;7.460;2024-03-06T13:52:06;26.33;;;16.40;;
59054;SDS011;44845;51.444;7.460;2024-03-06T13:54:34;22.08;;;16.60;;
59054;SDS011;44845;51.444;7.460;2024-03-06T13:57:04;27.80;;;17.13;;
59054;SDS011;44845;51.444;7.460;2024-03-06T13:59:30;24.75;;;17.02;;
59054;SDS011;44845;51.444;7.460;2024-03-06T14:01:56;28.50;;;19.17;;
59054;SDS011;44845;51.444;7.460;2024-03-06T14:04:22;30.65;;;20.10;;
59054;SDS011;44845;51.444;7.460;2024-03-06T14:06:49;32.03;;;22.17;;
59054;SDS011;44845;51.444;7.460;2024-03-06T14:09:14;29.48;;;21.00;;
59054;SDS011;44845;51.444;7.460;2024-03-06T14:11:40;34.25;;;21.80;;
59054;SDS011;44845;51.444;7.460;2024-03-06T14:14:05;28.65;;;20.83;;
59054;SDS011;44845;51.444;7.460;2024-03-06T14:16:31;27.67;;;20.13;;
59054;SDS011;44845;51.444;7.460;2024-03-06T14:18:56;29.48;;;19.95;;
59054;SDS011;44845;51.444;7.460;2024-03-06T14:21:21;26.83;;;19.42;;
59054;SDS011;44845;51.444;7.460;2024-03-06T14:23:47;28.88;;;20.45;;
59054;SDS011;44845;51.444;7.460;2024-03-06T14:26:12;27.88;;;19.83;;
59054;SDS011;44845;51.444;7.460;2024-03-06T14:28:38;28.65;;;19.02;;
59054;SDS011;44845;51.444;7.460;2024-03-06T14:31:03;26.83;;;19.23;;
59054;SDS011;44845;51.444;7.460;2024-03-06T14:33:29;29.02;;;20.38;;
59054;SDS011;44845;51.444;7.460;2024-03-06T14:35:54;27.27;;;20.13;;